createdAt,value
2017-12-31T00:01:45.796Z,98167.39
2017-12-31T00:07:49.306Z,98158.66
2017-12-31T00:13:54.039Z,98162.19
2017-12-31T00:19:57.795Z,98175.55
2017-12-31T00:26:01.277Z,98186.45
2017-12-31T00:32:04.762Z,98202.82
2017-12-31T00:38:09.054Z,98214.48
2017-12-31T00:44:12.629Z,98218.06
2017-12-31T00:50:16.561Z,98223.29
2017-12-31T00:56:20.467Z,98218.63
2017-12-31T01:02:25.143Z,98219.78
2017-12-31T01:08:28.772Z,98223.31
2017-12-31T01:14:32.531Z,98235.95
2017-12-31T01:20:36.046Z,98233.94
2017-12-31T01:26:39.703Z,98248.52
2017-12-31T01:32:43.289Z,98251.20
2017-12-31T01:38:46.855Z,98261.36
2017-12-31T01:44:51.148Z,98272.39
2017-12-31T01:50:55.235Z,98281.87
2017-12-31T01:56:58.798Z,98275.38
2017-12-31T02:03:02.396Z,98272.91
2017-12-31T02:09:05.949Z,98277.91
2017-12-31T02:15:10.164Z,98273.41
2017-12-31T02:21:13.779Z,98274.24
2017-12-31T02:27:17.385Z,98274.02
2017-12-31T02:33:21.261Z,98281.02
2017-12-31T02:39:24.898Z,98282.62
2017-12-31T02:45:28.384Z,98284.43
2017-12-31T02:51:31.938Z,98284.83
2017-12-31T02:57:35.538Z,98279.31
2017-12-31T03:03:39.029Z,98284.95
2017-12-31T03:09:42.569Z,98279.11
2017-12-31T03:15:46.110Z,98282.86
2017-12-31T03:21:49.918Z,98292.60
2017-12-31T03:27:54.827Z,98292.82
2017-12-31T03:33:59.233Z,98288.55
2017-12-31T03:40:02.703Z,98290.48
2017-12-31T03:46:06.575Z,98295.66
2017-12-31T03:52:10.151Z,98287.17
2017-12-31T03:58:13.621Z,98285.73
2017-12-31T04:04:17.970Z,98276.34
2017-12-31T04:10:21.825Z,98273.06
2017-12-31T04:22:35.083Z,98259.31
2017-12-31T04:28:38.576Z,98251.46
2017-12-31T04:34:43.119Z,98251.06
2017-12-31T04:40:46.712Z,98258.16
2017-12-31T04:46:50.640Z,98263.63
2017-12-31T04:52:54.280Z,98260.13
2017-12-31T04:58:57.922Z,98257.13
2017-12-31T05:05:01.463Z,98248.51
2017-12-31T05:11:05.800Z,98240.80
2017-12-31T05:17:09.503Z,98242.19
2017-12-31T05:23:13.419Z,98222.80
2017-12-31T05:29:18.848Z,98229.02
2017-12-31T05:35:23.473Z,98224.27
2017-12-31T05:41:27.525Z,98224.22
2017-12-31T05:47:31.463Z,98208.42
2017-12-31T05:53:34.967Z,98208.42
2017-12-31T05:59:38.456Z,98204.23
2017-12-31T06:05:43.520Z,98183.45
2017-12-31T06:11:48.092Z,98179.37
2017-12-31T06:17:52.117Z,98184.43
2017-12-31T06:23:55.831Z,98175.08
2017-12-31T06:30:00.093Z,98171.47
2017-12-31T06:36:04.388Z,98173.33
2017-12-31T06:42:07.893Z,98175.02
2017-12-31T06:48:11.455Z,98170.34
2017-12-31T06:54:14.932Z,98176.33
2017-12-31T07:00:18.387Z,98175.79
2017-12-31T07:06:23.002Z,98173.27
2017-12-31T07:12:26.576Z,98176.88
2017-12-31T07:18:30.052Z,98179.22
2017-12-31T07:24:33.548Z,98186.44
2017-12-31T07:30:37.106Z,98190.41
2017-12-31T07:36:41.341Z,98192.56
2017-12-31T07:42:44.802Z,98190.94
2017-12-31T07:48:48.280Z,98192.77
2017-12-31T07:54:53.040Z,98193.91
2017-12-31T08:00:56.564Z,98185.70
2017-12-31T08:07:00.042Z,98181.33
2017-12-31T08:13:03.536Z,98183.06
2017-12-31T08:19:07.057Z,98191.71
2017-12-31T08:25:10.554Z,98178.56
2017-12-31T08:31:14.209Z,98186.09
2017-12-31T08:37:18.450Z,98188.34
2017-12-31T08:43:23.253Z,98185.54
2017-12-31T08:49:27.550Z,98190.26
2017-12-31T08:55:31.156Z,98192.34
2017-12-31T09:01:34.880Z,98196.81
2017-12-31T09:07:38.473Z,98194.87
2017-12-31T09:13:41.944Z,98201.45
2017-12-31T09:19:46.616Z,98203.77
2017-12-31T09:25:50.108Z,98208.03
2017-12-31T09:31:54.402Z,98206.46
2017-12-31T09:37:58.002Z,98198.12
2017-12-31T09:44:02.269Z,98195.67
2017-12-31T09:50:05.870Z,98192.60
2017-12-31T09:56:09.408Z,98178.41
2017-12-31T10:02:13.680Z,98189.39
2017-12-31T10:08:18.085Z,98204.31
2017-12-31T10:14:21.665Z,98195.44
2017-12-31T10:20:26.426Z,98199.54
2017-12-31T10:26:29.937Z,98198.49
2017-12-31T10:32:33.557Z,98200.94
2017-12-31T10:38:37.067Z,98190.73
2017-12-31T10:44:40.616Z,98177.31
2017-12-31T10:50:44.150Z,98187.92
2017-12-31T10:56:47.626Z,98175.04
2017-12-31T11:02:51.227Z,98167.66
2017-12-31T11:08:55.197Z,98163.95
2017-12-31T11:14:58.696Z,98156.02
2017-12-31T11:21:02.959Z,98156.97
2017-12-31T11:27:06.473Z,98149.00
2017-12-31T11:33:10.144Z,98146.17
2017-12-31T11:39:13.735Z,98143.66
2017-12-31T11:45:18.034Z,98145.35
2017-12-31T11:51:22.043Z,98146.41
2017-12-31T11:57:25.584Z,98143.75
2017-12-31T12:03:29.097Z,98143.48
2017-12-31T12:09:32.590Z,98139.81
2017-12-31T12:15:36.382Z,98128.56
2017-12-31T12:21:39.938Z,98142.66
2017-12-31T12:27:43.441Z,98123.97
2017-12-31T12:33:47.230Z,98121.80
2017-12-31T12:39:51.103Z,98114.11
2017-12-31T12:45:55.188Z,98100.02
2017-12-31T12:51:59.455Z,98103.74
2017-12-31T12:58:03.192Z,98101.00
2017-12-31T13:04:06.723Z,98091.72
2017-12-31T13:10:10.282Z,98092.12
2017-12-31T13:16:13.807Z,98086.78
2017-12-31T13:22:17.308Z,98075.16
2017-12-31T13:28:20.928Z,98072.53
2017-12-31T13:34:24.658Z,98076.94
2017-12-31T13:40:28.931Z,98078.34
2017-12-31T13:46:33.288Z,98064.13
2017-12-31T13:52:36.884Z,98064.53
2017-12-31T13:58:40.445Z,98044.60
2017-12-31T14:04:43.993Z,98038.38
2017-12-31T14:10:47.627Z,98021.25
2017-12-31T14:16:51.923Z,98021.84
2017-12-31T14:22:55.466Z,97999.26
2017-12-31T14:28:59.767Z,98013.09
2017-12-31T14:35:03.281Z,97999.44
2017-12-31T14:41:07.706Z,97992.66
2017-12-31T14:47:11.226Z,97967.34
2017-12-31T14:53:15.512Z,97951.57
2017-12-31T14:59:19.225Z,97938.50
2017-12-31T15:05:22.717Z,97941.72
2017-12-31T15:11:26.303Z,97946.43
2017-12-31T15:17:29.866Z,97943.74
2017-12-31T15:23:33.417Z,97942.96
2017-12-31T15:29:36.961Z,97947.84
2017-12-31T15:35:40.622Z,97937.52
2017-12-31T15:41:44.116Z,97944.37
2017-12-31T15:47:47.811Z,97950.03
2017-12-31T15:53:51.803Z,97954.88
2017-12-31T15:59:55.522Z,97942.25
2017-12-31T16:05:59.826Z,97947.25
2017-12-31T16:12:03.439Z,97943.06
2017-12-31T16:18:06.916Z,97932.31
2017-12-31T16:24:10.584Z,97926.95
2017-12-31T16:30:14.199Z,97924.40
2017-12-31T16:36:17.689Z,97919.50
2017-12-31T16:42:21.220Z,97919.64
2017-12-31T16:48:25.081Z,97905.07
2017-12-31T16:54:28.601Z,97906.09
2017-12-31T17:00:32.122Z,97902.77
2017-12-31T17:06:35.812Z,97891.16
2017-12-31T17:12:39.349Z,97883.13
2017-12-31T17:18:42.909Z,97862.88
2017-12-31T17:24:46.409Z,97854.20
2017-12-31T17:30:50.915Z,97853.53
2017-12-31T17:36:54.599Z,97837.28
2017-12-31T17:42:58.162Z,97822.91
2017-12-31T17:49:01.725Z,97829.81
2017-12-31T17:55:05.235Z,97833.59
2017-12-31T18:01:09.598Z,97822.77
2017-12-31T18:07:13.972Z,97807.08
2017-12-31T18:13:18.370Z,97801.62
2017-12-31T18:19:21.853Z,97802.58
2017-12-31T18:25:25.376Z,97792.36
2017-12-31T18:31:28.976Z,97778.41
2017-12-31T18:37:32.448Z,97795.38
2017-12-31T18:43:35.924Z,97788.08
2017-12-31T18:49:40.193Z,97780.41
2017-12-31T18:55:44.454Z,97762.81
2017-12-31T19:01:48.752Z,97759.95
2017-12-31T19:07:52.677Z,97755.37
2017-12-31T19:13:56.731Z,97749.23
2017-12-31T19:20:00.282Z,97736.09
2017-12-31T19:26:03.746Z,97734.13
2017-12-31T19:32:07.213Z,97719.77
2017-12-31T19:38:10.757Z,97716.06
2017-12-31T19:44:14.269Z,97710.91
2017-12-31T19:50:17.741Z,97707.23
2017-12-31T19:56:22.234Z,97704.69
2017-12-31T20:02:25.897Z,97701.91
2017-12-31T20:08:29.441Z,97696.43
2017-12-31T20:14:32.940Z,97684.06
2017-12-31T20:20:37.333Z,97680.64
2017-12-31T20:26:40.785Z,97679.34
2017-12-31T20:32:44.275Z,97667.25
2017-12-31T20:38:47.762Z,97671.02
2017-12-31T20:44:51.361Z,97664.87
2017-12-31T20:50:55.182Z,97648.33
2017-12-31T20:56:58.913Z,97657.11
2017-12-31T21:03:02.407Z,97645.69
2017-12-31T21:09:06.685Z,97635.42
2017-12-31T21:15:10.184Z,97635.95
2017-12-31T21:21:13.826Z,97620.36
2017-12-31T21:27:17.341Z,97644.38
2017-12-31T21:33:22.454Z,97619.32
2017-12-31T21:39:26.031Z,97619.38
2017-12-31T21:45:29.566Z,97613.58
2017-12-31T21:51:33.076Z,97611.57
2017-12-31T21:57:36.595Z,97603.42
2017-12-31T22:03:40.154Z,97616.05
2017-12-31T22:09:43.717Z,97594.64
2017-12-31T22:15:47.215Z,97603.73
2017-12-31T22:21:52.466Z,97605.58
2017-12-31T22:27:56.348Z,97597.52
2017-12-31T22:34:00.649Z,97596.70
2017-12-31T22:40:04.926Z,97587.78
2017-12-31T22:46:08.497Z,97595.17
2017-12-31T22:52:11.982Z,97597.15
2017-12-31T22:58:15.599Z,97625.38
2017-12-31T23:04:19.472Z,97626.09
2017-12-31T23:10:23.346Z,97738.84
2017-12-31T23:16:26.962Z,97748.08
2017-12-31T23:22:31.232Z,97770.38
2017-12-31T23:28:35.516Z,97774.34
2017-12-31T23:34:39.822Z,97771.26
2017-12-31T23:40:43.329Z,97764.49
2017-12-31T23:46:46.789Z,97758.52
2017-12-31T23:52:50.731Z,97763.05
2017-12-31T23:58:54.464Z,97759.27
